Time;durP1;ratioP1;P1;durP2;ratioP2;P2;SDS_P1;SDS_P2;PMS_P1;PMS_P2;Temp;Humidity;BMP_temperature;BMP_pressure;BME280_temperature;BME280_humidity;BME280_pressure;Samples;Min_cycle;Max_cycle;Signal;HPM_P1;HPM_P2
2022/04/18 00:00:47;;;;;;;4.88;2.03;;;0.20;1.00;;;0.63;62.09;99615.06;4998236;28;119836;-71
2022/04/18 00:03:16;;;;;;;4.90;2.40;;;0.10;1.00;;;0.54;62.38;99600.50;4999620;28;119373;-71
2022/04/18 00:05:44;;;;;;;4.13;2.17;;;0.10;1.00;;;0.34;62.51;99598.28;4997454;28;130360;-70
2022/04/18 00:08:12;;;;;;;5.05;2.42;;;0.10;1.00;;;0.53;62.92;99593.53;4998951;28;129817;-69
2022/04/18 00:10:40;;;;;;;5.80;2.30;;;0.20;1.00;;;0.48;62.57;99593.44;5000951;28;119764;-71
2022/04/18 00:13:09;;;;;;;4.43;2.10;;;0.20;1.00;;;0.49;62.79;99589.72;4999432;28;119198;-69
2022/04/18 00:15:39;;;;;;;3.83;1.90;;;0.10;1.00;;;0.38;62.84;99595.97;5000147;28;130004;-71
2022/04/18 00:18:08;;;;;;;4.13;1.70;;;0.10;1.00;;;0.39;62.45;99587.72;5002503;28;129462;-71
2022/04/18 00:20:36;;;;;;;4.55;2.08;;;0.20;1.00;;;0.53;62.33;99578.31;5001383;28;119970;-71
2022/04/18 00:23:05;;;;;;;3.15;1.90;;;0.20;1.00;;;0.55;61.80;99575.41;5005055;28;118956;-71
2022/04/18 00:25:34;;;;;;;3.58;1.90;;;0.10;1.00;;;0.53;62.31;99566.81;5002131;28;129673;-71
2022/04/18 00:28:02;;;;;;;3.55;1.90;;;0.10;1.00;;;0.44;62.43;99568.31;5002415;28;129555;-69
2022/04/18 00:30:32;;;;;;;5.25;2.28;;;0.10;1.00;;;0.44;62.64;99562.97;5003164;28;121611;-70
2022/04/18 00:33:02;;;;;;;4.32;2.15;;;0.20;1.00;;;0.46;62.03;99566.19;5021134;28;121512;-70
2022/04/18 00:35:31;;;;;;;3.65;1.75;;;0.20;1.00;;;0.41;62.30;99558.09;5004092;28;129319;-71
2022/04/18 00:37:59;;;;;;;3.85;1.75;;;0.30;1.00;;;0.44;62.51;99557.63;5002128;28;129584;-71
2022/04/18 00:40:27;;;;;;;4.22;2.17;;;0.30;1.00;;;0.43;62.89;99556.78;5001236;28;119329;-70
2022/04/18 00:43:03;;;;;;;5.70;2.28;;;0.30;1.00;;;0.43;62.56;99554.13;5004221;28;119270;-70
2022/04/18 00:45:31;;;;;;;3.83;1.90;;;0.30;1.00;;;0.40;62.94;99545.78;5002034;28;130547;-70
2022/04/18 00:48:02;;;;;;;3.03;1.60;;;0.20;1.00;;;0.39;62.70;99554.84;5002512;28;129859;-71
2022/04/18 00:50:33;;;;;;;5.07;1.98;;;0.20;1.00;;;0.27;63.29;99544.25;5001104;28;120179;-70
2022/04/18 00:53:02;;;;;;;3.28;2.00;;;0.20;1.00;;;0.26;63.61;99538.09;5020176;28;119413;-70
2022/04/18 00:55:33;;;;;;;4.25;2.25;;;0.10;1.00;;;0.29;63.36;99539.47;4999342;28;129979;-70
2022/04/18 00:58:03;;;;;;;3.88;1.98;;;0.10;1.00;;;0.24;63.43;99542.88;5003840;28;129054;-70
2022/04/18 01:00:31;;;;;;;3.03;1.60;;;0.10;1.00;;;0.24;63.61;99545.56;5003975;28;119496;-72
2022/04/18 01:03:02;;;;;;;3.53;1.60;;;0.10;1.00;;;0.29;63.85;99542.16;5000648;28;120651;-71
2022/04/18 01:05:30;;;;;;;3.22;1.73;;;0.00;1.00;;;0.26;63.93;99538.09;4984191;28;130708;-71
2022/04/18 01:07:59;;;;;;;3.15;1.60;;;0.00;1.00;;;0.23;63.87;99543.91;5001886;28;129341;-71
2022/04/18 01:10:31;;;;;;;3.65;1.60;;;0.00;1.00;;;0.14;64.45;99540.03;5003737;28;119415;-72
2022/04/18 01:12:59;;;;;;;4.05;1.98;;;0.00;1.00;;;0.21;64.07;99543.34;5002555;28;119376;-71
2022/04/18 01:15:52;;;;;;;3.25;1.75;;;-0.10;1.00;;;0.28;63.94;99544.03;5003952;28;130305;-71
2022/04/18 01:18:39;;;;;;;5.05;2.25;;;-0.10;1.00;;;0.22;64.12;99542.31;5003636;28;130819;-72
2022/04/18 01:21:27;;;;;;;8.18;3.90;;;-0.10;1.00;;;0.37;64.00;99547.09;5003450;28;122208;-71
2022/04/18 01:29:54;;;;;;;4.40;2.17;;;0.00;1.00;;;0.31;63.34;99535.53;5000721;28;129756;-71
2022/04/18 01:32:23;;;;;;;4.10;2.33;;;0.10;1.00;;;0.40;62.66;99537.78;5003605;28;119505;-71
2022/04/18 01:34:51;;;;;;;4.53;2.10;;;0.20;1.00;;;0.39;62.46;99526.31;5000113;28;119400;-72
2022/04/18 01:37:21;;;;;;;4.10;2.20;;;0.30;1.00;;;0.41;63.20;99531.41;5019756;28;129499;-72
2022/04/18 01:39:50;;;;;;;4.32;2.08;;;0.30;1.00;;;0.50;62.54;99524.59;5001632;28;129892;-70
2022/04/18 01:42:18;;;;;;;3.00;1.70;;;0.40;1.00;;;0.47;62.53;99525.09;4986332;28;119582;-70
2022/04/18 01:44:47;;;;;;;3.75;1.73;;;0.40;1.00;;;0.56;62.80;99531.59;5019812;28;119512;-70
2022/04/18 01:47:16;;;;;;;5.18;2.00;;;0.50;1.00;;;0.48;62.60;99521.34;5001623;28;129446;-71
2022/04/18 01:49:45;;;;;;;2.45;1.60;;;0.50;1.00;;;0.58;61.77;99524.19;5003105;28;128804;-70
2022/04/18 01:52:15;;;;;;;3.83;1.83;;;0.60;1.00;;;0.62;61.98;99522.63;5001670;28;119464;-70
2022/04/18 01:54:46;;;;;;;5.07;1.92;;;0.60;1.00;;;0.50;61.87;99509.38;5002978;28;119060;-70
2022/04/18 01:57:17;;;;;;;3.95;1.98;;;0.70;1.00;;;0.56;61.94;99518.25;4999618;28;129946;-72
2022/04/18 01:59:45;;;;;;;5.22;2.13;;;0.70;1.00;;;0.66;62.11;99513.06;5002810;28;129198;-72
2022/04/18 02:02:14;;;;;;;6.47;2.55;;;0.80;1.00;;;0.76;61.40;99514.28;5003086;28;119870;-70
2022/04/18 02:04:44;;;;;;;4.03;2.20;;;0.70;1.00;;;0.92;61.28;99516.09;4986775;28;118891;-72
2022/04/18 02:07:14;;;;;;;4.40;2.28;;;0.70;1.00;;;0.97;60.97;99524.19;5002660;28;129793;-72
2022/04/18 02:09:50;;;;;;;3.28;1.90;;;0.70;1.00;;;0.92;60.40;99512.59;5016311;28;129507;-71
2022/04/18 02:12:20;;;;;;;5.38;2.10;;;0.70;1.00;;;0.84;60.83;99508.50;5001537;28;121652;-72
2022/04/18 02:15:02;;;;;;;3.65;1.80;;;0.80;1.00;;;0.90;60.59;99507.50;5002987;28;121701;-72
2022/04/18 02:17:34;;;;;;;5.07;1.67;;;0.80;1.00;;;0.90;60.53;99507.50;5003185;28;129159;-71
2022/04/18 02:20:03;;;;;;;4.20;1.73;;;0.80;1.00;;;0.82;60.48;99495.38;5002288;28;128692;-71
2022/04/18 02:22:33;;;;;;;3.78;1.77;;;0.80;1.00;;;0.84;61.03;99495.13;5001018;28;120301;-71
2022/04/18 02:25:03;;;;;;;3.45;1.90;;;0.80;1.00;;;0.88;60.20;99493.59;5019536;28;119339;-71
2022/04/18 02:27:32;;;;;;;3.78;1.88;;;0.80;1.00;;;0.89;60.10;99492.56;5002178;28;129360;-73
2022/04/18 02:30:01;;;;;;;4.70;1.85;;;0.80;1.00;;;0.87;60.03;99483.97;5002681;28;129710;-71
2022/04/18 02:32:48;;;;;;;5.15;1.88;;;0.90;1.00;;;0.89;60.40;99489.88;5002543;28;118788;-71
2022/04/18 02:35:18;;;;;;;2.72;1.52;;;0.80;1.00;;;0.83;60.18;99480.19;5018854;28;118427;-71
2022/04/18 02:37:47;;;;;;;3.85;2.00;;;0.80;1.00;;;0.89;60.70;99484.53;5000288;28;129137;-70
2022/04/18 02:40:23;;;;;;;4.93;1.80;;;0.80;1.00;;;0.73;60.04;99477.38;5001925;28;129333;-72
2022/04/18 02:42:52;;;;;;;3.45;1.77;;;0.90;1.00;;;0.81;60.24;99476.94;5002324;28;119446;-72
2022/04/18 02:45:21;;;;;;;3.00;1.38;;;0.90;1.00;;;0.82;59.51;99478.56;4999170;28;120977;-72
2022/04/18 02:48:09;;;;;;;2.35;1.50;;;0.90;1.00;;;0.97;60.25;99472.59;5000126;28;129737;-72
2022/04/18 02:50:41;;;;;;;2.78;1.75;;;0.90;1.00;;;0.98;59.86;99471.53;5001645;28;129047;-71
2022/04/18 02:53:10;;;;;;;4.20;1.63;;;0.90;1.00;;;1.02;59.84;99478.81;5000638;28;119937;-71
2022/04/18 02:55:46;;;;;;;3.22;1.65;;;0.90;1.00;;;0.98;60.21;99472.34;5002418;28;119156;-71
2022/04/18 02:58:14;;;;;;;3.08;1.52;;;0.90;1.00;;;1.01;59.63;99471.88;5018519;28;130312;-71
2022/04/18 03:00:44;;;;;;;2.50;1.50;;;0.90;1.00;;;1.05;59.64;99472.16;5018503;28;128930;-71
2022/04/18 03:03:13;;;;;;;4.13;1.80;;;0.90;1.00;;;0.91;60.35;99470.94;5000673;28;121823;-70
2022/04/18 03:05:41;;;;;;;3.05;1.70;;;0.90;1.00;;;1.12;60.08;99472.75;4998977;28;122355;-71
2022/04/18 03:08:10;;;;;;;3.47;1.73;;;0.90;1.00;;;1.14;60.60;99464.50;5001699;28;129534;-72
2022/04/18 03:13:33;;;;;;;4.25;1.92;;;0.90;1.00;;;1.04;60.98;99465.19;5000138;28;119795;-72
2022/04/18 03:16:06;;;;;;;5.47;1.80;;;0.90;1.00;;;1.04;60.45;99455.31;5001767;28;119318;-72
2022/04/18 03:18:37;;;;;;;3.83;1.83;;;0.90;1.00;;;1.05;60.77;99461.47;5018378;28;130224;-71
2022/04/18 03:21:06;;;;;;;4.50;2.20;;;0.90;1.00;;;1.22;60.05;99464.06;4985278;28;130575;-73
2022/04/18 03:23:36;;;;;;;3.55;1.80;;;0.90;1.00;;;1.11;60.03;99451.63;4998289;28;120117;-72
2022/04/18 03:26:25;;;;;;;2.58;1.50;;;0.90;1.00;;;1.18;59.62;99454.94;4971232;28;119980;-73
2022/04/18 03:29:05;;;;;;;3.42;1.77;;;0.90;1.00;;;1.09;60.17;99451.88;5000479;28;130223;-72
2022/04/18 03:31:34;;;;;;;3.35;1.88;;;1.00;1.00;;;1.14;60.04;99453.81;5017414;28;129555;-70
2022/04/18 03:34:03;;;;;;;4.78;1.77;;;1.00;1.00;;;1.15;59.79;99450.09;5001724;28;120268;-70
2022/04/18 03:42:05;;;;;;;6.60;1.88;;;1.10;1.00;;;1.40;59.34;99441.53;4998273;28;129994;-72
2022/04/18 03:44:35;;;;;;;4.75;1.75;;;1.10;1.00;;;1.50;58.97;99435.47;5002383;28;119984;-70
2022/04/18 03:47:03;;;;;;;2.50;1.50;;;1.10;1.00;;;1.33;58.95;99436.38;5002188;28;120039;-72
2022/04/18 03:49:32;;;;;;;3.85;1.63;;;1.20;1.00;;;1.46;58.79;99435.16;5000006;28;131158;-71
2022/04/18 03:52:01;;;;;;;2.85;1.70;;;1.20;1.00;;;1.34;58.77;99427.31;5001030;28;128442;-72
2022/04/18 03:54:30;;;;;;;4.18;1.83;;;1.20;1.00;;;1.48;58.61;99432.22;4999827;28;121774;-72
2022/04/18 03:56:58;;;;;;;4.72;1.83;;;1.20;1.00;;;1.40;58.59;99426.31;4999516;28;122040;-72
2022/04/18 03:59:51;;;;;;;4.03;1.52;;;1.20;1.00;;;1.39;58.25;99424.69;4995331;28;130970;-72
2022/04/18 04:02:22;;;;;;;4.03;1.73;;;1.30;1.00;;;1.54;57.54;99425.88;5014550;28;130121;-73
2022/04/18 04:04:55;;;;;;;4.22;1.50;;;1.30;1.00;;;1.54;57.93;99420.53;4984399;28;119210;-72
2022/04/18 04:07:23;;;;;;;3.25;1.48;;;1.30;1.00;;;1.60;58.23;99416.84;5017973;28;119742;-72
2022/04/18 04:10:06;;;;;;;6.78;1.73;;;1.30;1.00;;;1.66;57.76;99423.06;5000723;28;130378;-71
2022/04/18 04:12:35;;;;;;;3.45;1.60;;;1.40;1.00;;;1.65;58.13;99422.22;4998108;28;129926;-71
2022/04/18 04:15:28;;;;;;;4.35;1.85;;;1.40;1.00;;;1.77;57.35;99424.75;5001629;28;119887;-71
2022/04/18 04:18:06;;;;;;;2.75;1.55;;;1.40;1.00;;;1.72;57.19;99425.50;5017743;28;120068;-72
2022/04/18 04:20:35;;;;;;;3.20;1.50;;;1.40;1.00;;;1.80;57.24;99408.97;4977055;28;129213;-72
2022/04/18 04:23:04;;;;;;;3.45;1.65;;;1.50;1.00;;;1.63;57.38;99413.66;4980186;28;129065;-73
2022/04/18 04:25:53;;;;;;;3.58;1.65;;;1.50;1.00;;;1.77;56.82;99412.16;4971079;28;120022;-73
2022/04/18 04:28:28;;;;;;;3.75;1.73;;;1.50;1.00;;;1.93;56.52;99410.44;4979208;28;118787;-72
2022/04/18 04:30:58;;;;;;;4.78;1.67;;;1.60;1.00;;;1.91;56.55;99414.41;4963756;28;128756;-73
2022/04/18 04:33:26;;;;;;;4.20;1.92;;;1.60;1.00;;;1.92;56.59;99405.34;4978573;28;129298;-73
2022/04/18 04:35:57;;;;;;;3.83;1.80;;;1.60;1.00;;;1.90;56.36;99415.47;4981267;28;118795;-73
2022/04/18 04:38:27;;;;;;;2.92;1.80;;;1.70;1.00;;;1.80;57.25;99417.00;4997371;28;119046;-73
2022/04/18 04:40:59;;;;;;;6.18;3.25;;;1.60;1.00;;;2.12;56.22;99405.47;4978916;28;129870;-73
2022/04/18 04:43:46;;;;;;;7.18;3.95;;;1.70;1.00;;;2.41;55.72;99407.78;4996477;28;129145;-71
2022/04/18 04:46:20;;;;;;;5.70;3.75;;;1.80;1.00;;;2.44;55.47;99403.78;4978688;28;121178;-70
2022/04/18 04:48:58;;;;;;;5.18;2.30;;;1.90;1.00;;;2.47;55.28;99405.94;4997071;28;121448;-73
2022/04/18 04:51:26;;;;;;;6.22;2.55;;;2.00;1.00;;;2.42;55.04;99404.03;4979080;28;129946;-71
2022/04/18 04:53:55;;;;;;;4.88;1.80;;;2.00;1.00;;;2.67;54.26;99406.03;4979243;28;128624;-73
2022/04/18 04:56:33;;;;;;;6.13;2.83;;;2.10;1.00;;;2.75;54.61;99402.03;4997001;28;119644;-68
2022/04/18 04:59:04;;;;;;;5.20;1.90;;;2.20;1.00;;;2.81;53.58;99403.69;4980205;28;119044;-72
2022/04/18 05:01:35;;;;;;;3.28;1.65;;;2.30;1.00;;;3.19;52.40;99401.63;4978068;28;130032;-72
2022/04/18 05:04:10;;;;;;;5.65;2.10;;;2.50;1.00;;;3.01;53.29;99407.50;4982397;28;128766;-73
2022/04/18 05:06:40;;;;;;;2.53;1.60;;;2.50;1.00;;;2.92;53.57;99401.84;4967145;28;119187;-73
2022/04/18 05:09:12;;;;;;;4.22;1.88;;;2.50;1.00;;;3.53;52.16;99406.53;4980645;28;119391;-74
2022/04/18 05:11:41;;;;;;;3.40;1.92;;;2.60;1.00;;;3.45;52.39;99393.66;4965555;28;130467;-73
2022/04/18 05:14:14;;;;;;;3.10;1.77;;;2.70;1.00;;;3.12;52.71;99395.75;4980129;28;129543;-74
2022/04/18 05:16:54;;;;;;;3.83;1.80;;;2.60;1.00;;;2.94;52.80;99402.38;5000207;28;119507;-74
2022/04/18 05:19:33;;;;;;;5.53;1.70;;;2.60;1.00;;;3.32;52.25;99404.88;4983622;28;119334;-72
2022/04/18 05:22:26;;;;;;;3.28;1.40;;;2.70;1.00;;;3.69;50.82;99393.91;4983106;28;130449;-72
2022/04/18 05:24:55;;;;;;;5.13;1.77;;;2.90;1.00;;;3.87;50.77;99397.94;4981399;28;129578;-72
2022/04/18 05:27:36;;;;;;;4.00;1.63;;;3.10;1.00;;;4.39;49.61;99389.81;5000323;28;120419;-73
2022/04/18 05:30:10;;;;;;;5.13;1.60;;;3.40;1.00;;;4.56;49.09;99390.28;4983510;28;119370;-73
2022/04/18 05:32:43;;;;;;;3.15;1.60;;;3.50;1.00;;;4.23;49.89;99384.47;4983341;28;129557;-73
2022/04/18 05:35:12;;;;;;;5.40;1.92;;;3.40;1.00;;;4.24;49.97;99382.59;4983153;28;129511;-73
2022/04/18 05:37:41;;;;;;;3.85;1.77;;;3.30;1.00;;;4.32;50.62;99379.38;4982320;28;123656;-73
2022/04/18 05:40:24;;;;;;;3.22;1.60;;;3.40;1.00;;;4.01;50.04;99382.09;5000089;28;121147;-72
2022/04/18 05:42:54;;;;;;;3.42;1.70;;;3.30;1.00;;;3.81;50.84;99380.25;4966268;28;128563;-73
2022/04/18 05:45:22;;;;;;;4.45;2.15;;;3.30;1.00;;;3.89;50.27;99374.31;4979930;28;129418;-77
2022/04/18 05:48:03;;;;;;;4.28;1.98;;;3.30;1.00;;;3.77;50.90;99373.78;4983537;28;118715;-72
2022/04/18 05:50:36;;;;;;;4.65;1.92;;;3.20;1.00;;;3.89;50.66;99371.63;4983545;28;119325;-74
2022/04/18 05:53:28;;;;;;;3.63;1.70;;;3.30;1.00;;;4.01;51.28;99362.50;4980285;28;130047;-74
2022/04/18 05:56:17;;;;;;;4.57;1.95;;;3.40;1.00;;;3.95;50.94;99359.81;4973691;28;129499;-73
2022/04/18 05:58:51;;;;;;;4.63;1.80;;;3.40;1.00;;;4.08;51.53;99354.97;4999370;28;120086;-73
2022/04/18 06:01:46;;;;;;;3.88;1.73;;;3.40;1.00;;;3.94;50.89;99347.47;4982183;28;119684;-73
2022/04/18 06:04:42;;;;;;;5.93;2.20;;;3.30;1.00;;;4.28;50.81;99346.84;4981304;28;129589;-74
2022/04/18 06:07:35;;;;;;;5.30;1.92;;;3.40;1.00;;;4.22;50.34;99353.31;4963321;28;129510;-74
2022/04/18 06:10:40;;;;;;;4.95;2.15;;;3.40;1.00;;;4.10;51.58;99350.13;4971962;28;119380;-73
2022/04/18 06:13:27;;;;;;;3.85;2.05;;;3.40;1.00;;;3.85;51.88;99353.66;4980336;28;120298;-74
2022/04/18 06:15:56;;;;;;;5.07;1.98;;;3.40;1.00;;;3.92;51.62;99344.25;4979549;28;129665;-73
2022/04/18 06:18:25;;;;;;;6.57;2.13;;;3.40;1.00;;;4.37;50.84;99354.38;4966071;28;128469;-74
2022/04/18 06:20:58;;;;;;;3.22;1.58;;;3.60;1.00;;;3.81;51.47;99341.84;4999465;28;119937;-76
2022/04/18 06:23:27;;;;;;;4.70;2.33;;;3.50;1.00;;;3.81;52.09;99341.84;5000271;28;119581;-74
2022/04/18 06:26:15;;;;;;;2.88;1.73;;;3.40;1.00;;;3.79;51.96;99334.06;4983326;28;130142;-76
2022/04/18 06:28:44;;;;;;;4.13;1.90;;;3.40;1.00;;;3.76;51.30;99345.34;4982585;28;128492;-74
2022/04/18 06:31:13;;;;;;;4.15;2.08;;;3.40;1.00;;;3.73;52.16;99335.16;4964997;28;122438;-76
2022/04/18 06:33:48;;;;;;;5.30;2.38;;;3.50;1.00;;;3.88;52.25;99328.94;4982711;28;120565;-75
2022/04/18 06:36:18;;;;;;;4.10;2.20;;;3.50;1.00;;;4.14;51.31;99329.69;4981791;28;128618;-75
2022/04/18 06:38:56;;;;;;;4.13;2.05;;;3.60;1.00;;;4.36;50.75;99337.41;4982168;28;130141;-72
2022/04/18 06:41:28;;;;;;;4.00;2.10;;;3.70;1.00;;;4.44;50.43;99338.72;4966178;28;118583;-75
2022/04/18 06:43:57;;;;;;;4.80;2.17;;;3.70;1.00;;;4.50;50.41;99337.63;4981245;28;120045;-78
2022/04/18 06:46:30;;;;;;;4.88;2.80;;;3.80;1.00;;;4.61;51.03;99333.84;4999435;28;128492;-75
2022/04/18 06:49:07;;;;;;;8.52;3.65;;;3.80;1.00;;;4.81;50.68;99334.81;4996087;28;129464;-77
2022/04/18 06:52:07;;;;;;;3.30;2.10;;;4.10;1.00;;;4.47;50.53;99330.13;4989653;28;119071;-74
2022/04/18 06:55:06;;;;;;;6.57;2.70;;;3.90;1.00;;;4.62;50.88;99319.31;4993294;28;119757;-75
2022/04/18 06:57:34;;;;;;;3.08;2.00;;;3.80;1.00;;;4.93;50.21;99327.22;4997054;28;129752;-76
2022/04/18 07:00:05;;;;;;;4.55;2.58;;;4.00;1.00;;;5.07;50.03;99321.22;4985059;28;128606;-76
2022/04/18 07:02:37;;;;;;;4.70;2.50;;;4.20;1.00;;;4.97;50.30;99317.53;5001769;28;119392;-76
2022/04/18 07:05:07;;;;;;;3.92;2.08;;;4.20;1.00;;;5.33;48.84;99316.44;4998526;28;119281;-75
2022/04/18 07:07:37;;;;;;;4.05;2.22;;;4.20;1.00;;;5.20;49.11;99312.50;5001744;28;129594;-73
2022/04/18 07:10:07;;;;;;;4.50;2.30;;;4.30;1.00;;;5.14;49.07;99310.94;4998653;28;129678;-75
2022/04/18 07:12:36;;;;;;;6.72;2.80;;;4.30;1.00;;;5.13;49.60;99320.13;5001885;28;119540;-75
2022/04/18 07:15:06;;;;;;;5.82;3.00;;;4.40;1.00;;;5.72;48.76;99305.63;4969125;28;118779;-76
2022/04/18 07:17:35;;;;;;;5.70;2.83;;;4.70;1.00;;;5.64;48.28;99305.44;4998056;28;129998;-76
2022/04/18 07:20:09;;;;;;;6.47;3.17;;;4.70;1.00;;;5.85;48.68;99298.78;4998354;28;129836;-78
2022/04/18 07:22:40;;;;;;;4.55;2.40;;;4.80;1.00;;;5.48;48.89;99313.63;4967648;28;121574;-76
2022/04/18 07:25:13;;;;;;;5.93;2.15;;;4.80;1.00;;;5.75;48.13;99307.75;4986073;28;121756;-76
2022/04/18 07:27:45;;;;;;;6.32;3.03;;;4.70;1.00;;;5.86;47.87;99302.25;5001516;28;130376;-76
2022/04/18 07:30:15;;;;;;;5.45;2.58;;;4.90;1.00;;;6.03;48.45;99296.47;4985084;28;129337;-77
2022/04/18 07:32:45;;;;;;;4.65;2.38;;;5.00;1.00;;;5.91;47.93;99299.53;4968257;28;118632;-77
2022/04/18 07:35:18;;;;;;;4.55;2.40;;;4.90;1.00;;;5.70;48.77;99299.75;5001853;28;118923;-77
2022/04/18 07:40:50;;;;;;;4.72;2.05;;;5.00;1.00;;;5.74;47.45;99290.00;4998881;28;129811;-76
2022/04/18 07:43:23;;;;;;;6.05;2.65;;;5.00;1.00;;;5.50;48.31;99289.13;5001724;28;119135;-78
2022/04/18 07:45:52;;;;;;;4.50;2.30;;;4.90;1.00;;;6.09;46.25;99296.13;5019433;28;118974;-78
2022/04/18 07:48:22;;;;;;;4.80;2.10;;;5.20;1.00;;;6.63;46.44;99293.31;5000560;28;129974;-76
2022/04/18 07:53:40;;;;;;;4.65;2.17;;;5.50;1.00;;;7.15;45.76;99277.19;5001630;28;118359;-76
2022/04/18 07:56:09;;;;;;;5.57;2.45;;;5.80;1.00;;;6.83;45.03;99273.38;5001622;28;119105;-77
2022/04/18 07:58:38;;;;;;;2.67;1.60;;;5.80;1.00;;;7.45;44.12;99275.91;5001101;28;129624;-76
2022/04/18 08:01:13;;;;;;;5.65;2.65;;;6.10;1.00;;;7.25;44.14;99270.84;5001655;28;128905;-77
2022/04/18 08:03:41;;;;;;;4.70;2.25;;;6.10;1.00;;;6.85;43.93;99276.56;5001967;28;119282;-75
2022/04/18 08:06:10;;;;;;;4.82;2.17;;;5.90;1.00;;;7.08;43.74;99260.59;4986514;28;119405;-75
2022/04/18 08:08:59;;;;;;;5.07;1.90;;;6.10;1.00;;;7.21;43.35;99270.63;4964537;28;129488;-76
2022/04/18 08:11:28;;;;;;;3.55;1.70;;;6.30;1.00;;;8.16;42.17;99251.34;4982062;28;129578;-77
2022/04/18 08:13:56;;;;;;;3.95;1.52;;;6.50;1.00;;;8.43;40.20;99250.56;4977478;28;122067;-78
2022/04/18 08:16:43;;;;;;;3.47;1.58;;;7.00;1.00;;;8.34;40.93;99256.97;4979986;28;121716;-76
2022/04/18 08:19:33;;;;;;;3.67;1.73;;;7.00;1.00;;;7.92;40.62;99246.97;4994931;28;130250;-77
2022/04/18 08:22:02;;;;;;;3.80;1.90;;;6.90;1.00;;;7.98;41.70;99254.97;4978007;28;129754;-77
2022/04/18 08:24:34;;;;;;;4.10;1.88;;;6.90;1.00;;;7.91;40.87;99249.97;4978706;28;120214;-77
2022/04/18 08:27:22;;;;;;;3.10;1.70;;;6.80;1.00;;;7.60;42.23;99260.53;4981803;28;119462;-77
2022/04/18 08:30:00;;;;;;;3.13;1.83;;;6.60;1.00;;;6.72;44.96;99253.81;4979080;28;129975;-77
2022/04/18 08:33:07;;;;;;;4.55;1.80;;;6.10;1.00;;;6.58;45.70;99258.34;4980368;28;130686;-76
2022/04/18 08:35:35;;;;;;;3.63;2.03;;;6.10;1.00;;;7.17;45.22;99251.53;4948616;28;119474;-77
2022/04/18 08:38:04;;;;;;;5.50;2.00;;;6.40;1.00;;;6.95;44.48;99246.75;4974069;28;119442;-78
2022/04/18 08:40:35;;;;;;;4.63;1.80;;;6.30;1.00;;;7.58;43.40;99239.22;4981632;28;130008;-76
2022/04/18 08:43:08;;;;;;;3.60;1.80;;;6.50;1.00;;;7.70;42.92;99236.06;4998589;28;129945;-76
2022/04/18 08:45:39;;;;;;;2.92;1.67;;;6.70;1.00;;;7.17;43.26;99232.63;4985457;28;119957;-77
2022/04/18 08:53:41;;;;;;;4.00;1.90;;;6.70;1.00;;;7.53;42.63;99215.03;5000509;28;132444;-70
2022/04/18 08:56:11;;;;;;;3.05;1.70;;;6.60;1.00;;;7.41;42.76;99230.91;4986122;28;119847;-77
2022/04/18 08:58:42;;;;;;;3.75;1.50;;;6.60;1.00;;;7.24;41.28;99226.84;4982545;28;119453;-77
2022/04/18 09:01:16;;;;;;;3.08;1.38;;;6.60;1.00;;;7.69;41.13;99221.72;4998758;28;130283;-78
2022/04/18 09:04:03;;;;;;;6.03;1.63;;;6.80;1.00;;;7.33;41.47;99219.69;4984141;28;130015;-77
2022/04/18 09:06:43;;;;;;;3.28;1.90;;;6.70;1.00;;;7.53;41.06;99207.72;4981515;28;121549;-78
2022/04/18 09:09:28;;;;;;;4.38;1.98;;;6.80;1.00;;;7.29;42.16;99207.88;5002372;28;121456;-77
2022/04/18 09:12:03;;;;;;;4.45;1.80;;;6.60;1.00;;;6.59;43.95;99216.78;4985246;28;127888;-76
2022/04/18 09:14:37;;;;;;;3.47;1.80;;;6.20;1.00;;;6.49;43.39;99225.84;5001082;28;129092;-72
2022/04/18 09:17:05;;;;;;;6.13;2.55;;;6.20;1.00;;;6.84;43.32;99223.72;4983722;28;119898;-76
2022/04/18 09:20:08;;;;;;;3.67;1.92;;;6.40;1.00;;;7.06;43.98;99215.00;4986872;28;119241;-76
2022/04/18 09:22:44;;;;;;;4.15;1.70;;;6.40;1.00;;;6.63;44.88;99224.00;4997625;28;130242;-75
2022/04/18 09:25:16;;;;;;;4.35;2.10;;;6.30;1.00;;;7.31;44.38;99227.28;5001629;28;129673;-75
2022/04/18 09:27:55;;;;;;;2.95;1.63;;;6.60;1.00;;;7.48;44.69;99204.28;5004841;28;119735;-77
2022/04/18 09:30:31;;;;;;;3.22;1.80;;;6.70;1.00;;;8.44;41.75;99203.47;5004391;28;119066;-79
2022/04/18 09:33:03;;;;;;;3.47;1.92;;;7.20;1.00;;;7.82;42.13;99195.03;4986692;28;128854;-78
2022/04/18 09:36:13;;;;;;;5.35;1.77;;;7.00;1.00;;;7.48;43.61;99178.13;5003701;28;129888;-78
2022/04/18 09:38:47;;;;;;;4.13;2.27;;;6.70;1.00;;;7.56;44.09;99184.72;5001152;28;120343;-72
2022/04/18 09:41:17;;;;;;;4.72;2.40;;;6.80;1.00;;;8.14;43.90;99177.88;5006078;28;117873;-77
2022/04/18 09:43:49;;;;;;;4.38;2.60;;;6.90;1.00;;;8.26;43.16;99178.16;5003177;28;128737;-77
2022/04/18 09:46:24;;;;;;;7.40;3.47;;;7.00;1.00;;;8.28;43.98;99178.66;5000638;28;130226;-78
2022/04/18 09:49:05;;;;;;;4.03;2.13;;;7.00;1.00;;;7.34;45.12;99188.09;4986428;28;118660;-77
2022/04/18 09:51:37;;;;;;;4.20;1.88;;;6.60;1.00;;;6.72;48.28;99199.88;5004336;28;119359;-76
2022/04/18 09:54:11;;;;;;;3.95;1.85;;;6.20;1.00;;;6.40;50.70;99212.19;5000091;28;130370;-75
2022/04/18 09:56:50;;;;;;;9.77;2.80;;;5.80;1.00;;;6.28;57.90;99230.72;5001113;28;129728;-76
2022/04/18 09:59:21;;;;;;;8.10;3.13;;;5.60;1.00;;;5.65;63.48;99221.69;5001942;28;122103;-77
2022/04/18 10:01:49;;;;;;;5.95;2.55;;;5.00;1.00;;;5.94;65.26;99234.31;5003246;28;120843;-75
2022/04/18 10:04:18;;;;;;;6.15;2.50;;;4.90;1.00;;;5.83;65.10;99232.81;5001173;28;130613;-78
2022/04/18 10:06:50;;;;;;;7.72;2.50;;;4.70;1.00;;;5.09;69.58;99236.47;5003123;28;128965;-77
2022/04/18 10:09:18;;;;;;;5.55;2.70;;;4.40;1.00;;;5.01;70.69;99245.94;4999979;28;119795;-71
2022/04/18 10:11:47;;;;;;;5.78;2.47;;;4.30;1.00;;;5.37;70.08;99236.78;5001068;28;119897;-74
2022/04/18 10:14:16;;;;;;;6.43;3.03;;;4.30;1.00;;;5.01;71.68;99239.75;5001011;28;130253;-73
2022/04/18 10:16:46;;;;;;;4.03;2.22;;;4.10;1.00;;;4.72;73.38;99229.75;5000646;28;130356;-72
2022/04/18 10:19:37;;;;;;;6.85;3.13;;;3.90;1.00;;;5.07;74.22;99237.84;5002992;28;118415;-73
2022/04/18 10:22:32;;;;;;;5.88;3.05;;;4.00;1.00;;;5.20;73.24;99235.31;5001053;28;119369;-75
2022/04/18 10:25:15;;;;;;;5.53;2.55;;;4.10;1.00;;;5.01;74.71;99242.44;4999294;28;129878;-73
2022/04/18 10:28:05;;;;;;;5.35;2.67;;;4.10;1.00;;;5.30;75.07;99242.50;4986189;28;128541;-74
2022/04/18 10:30:41;;;;;;;11.90;6.13;;;4.20;1.00;;;4.78;76.65;99243.97;5000887;28;119515;-74
2022/04/18 10:33:13;;;;;;;9.85;4.53;;;4.00;1.00;;;5.64;74.76;99241.63;5000710;28;119584;-73
2022/04/18 10:35:53;;;;;;;7.97;3.88;;;4.40;1.00;;;5.70;75.73;99245.88;5000610;28;130200;-73
2022/04/18 10:38:26;;;;;;;6.10;3.90;;;4.50;1.00;;;5.88;75.43;99238.16;5000453;28;129617;-75
2022/04/18 10:44:01;;;;;;;6.63;3.65;;;4.30;1.00;;;4.72;78.05;99242.38;5003323;28;119522;-73
2022/04/18 10:46:30;;;;;;;5.88;2.78;;;3.90;1.00;;;4.40;80.76;99243.66;5000317;28;130038;-71
2022/04/18 10:49:03;;;;;;;5.13;3.05;;;3.80;1.00;;;5.09;79.82;99251.81;5014318;28;129797;-72
2022/04/18 10:51:36;;;;;;;11.93;3.65;;;4.00;1.00;;;5.00;79.12;99247.03;4998779;28;123231;-71
2022/04/18 10:54:11;;;;;;;7.10;2.80;;;4.10;1.00;;;5.28;78.61;99244.63;5000615;28;121468;-72
2022/04/18 10:56:55;;;;;;;5.35;3.03;;;4.10;1.00;;;5.26;80.18;99230.69;5000091;28;129797;-73
2022/04/18 10:59:28;;;;;;;6.90;3.88;;;4.00;1.00;;;5.36;81.06;99229.78;4999485;28;129903;-75
2022/04/18 11:01:59;;;;;;;8.68;3.47;;;4.10;1.00;;;4.61;82.76;99220.97;5000474;28;119407;-76
2022/04/18 11:04:30;;;;;;;6.95;3.10;;;3.70;1.00;;;4.24;84.39;99230.28;5002419;28;120272;-74
2022/04/18 11:07:02;;;;;;;6.45;3.80;;;3.60;1.00;;;4.87;84.11;99223.47;4999747;28;131420;-72
2022/04/18 11:09:32;;;;;;;9.13;3.33;;;3.90;1.00;;;4.66;83.99;99228.97;5000434;28;129055;-75
2022/04/18 11:12:08;;;;;;;5.53;3.30;;;3.70;1.00;;;4.53;84.32;99228.78;5000280;28;119497;-75
2022/04/18 11:14:54;;;;;;;5.72;2.70;;;3.70;1.00;;;4.42;86.63;99239.59;4999645;28;119418;-78
2022/04/18 11:17:29;;;;;;;5.40;3.07;;;3.70;1.00;;;4.54;87.63;99225.81;4998854;28;131420;-78
2022/04/18 11:20:14;;;;;;;5.30;2.63;;;3.70;1.00;;;4.86;87.02;99230.72;4998121;28;129590;-74
2022/04/18 11:22:43;;;;;;;7.35;2.88;;;3.80;1.00;;;5.43;85.01;99224.88;5001003;28;119884;-75
2022/04/18 11:25:12;;;;;;;7.85;3.03;;;4.10;1.00;;;4.71;85.71;99227.34;5000082;28;119845;-76
2022/04/18 11:27:41;;;;;;;5.47;3.20;;;3.80;1.00;;;4.08;88.33;99228.75;4999426;28;129815;-76
2022/04/18 11:30:14;;;;;;;5.88;2.95;;;3.50;1.00;;;4.46;89.01;99226.41;4999590;28;129509;-76